This is the latest recevied weather packets stored in our database for station/object KB3AWQ. If no packets are shown the sender has not sent any weather packets the latest 10 day(s).
| Time | Temp. | Humidity | Pressure | Rain* | Wind** | Luminosity | Snow |
|---|---|---|---|---|---|---|---|
| 1777738167 | 12.22° C | 51% | 1014.2 hPa | 0 mm | - | 911 W/m² | - |
| 1777737867 | 12.22° C | 51% | 1014.3 hPa | 0 mm | - | 373 W/m² | - |
| 1777737566 | 11.67° C | 51% | 1014.3 hPa | 0 mm | - | 354 W/m² | - |
| 1777737266 | 11.67° C | 53% | 1014.3 hPa | 0 mm | - | 550 W/m² | - |
| 1777736966 | 11.67° C | 54% | 1014.3 hPa | 0 mm | - | 565 W/m² | - |
| 1777736666 | 11.67° C | 48% | 1014.3 hPa | 0 mm | - | 364 W/m² | - |
| 1777736366 | 11.67° C | 53% | 1014.4 hPa | 0 mm | - | 662 W/m² | - |
| 1777736066 | 11.67° C | 54% | 1014.4 hPa | 0 mm | - | 1133 W/m² | - |
| 1777735768 | 11.67° C | 50% | 1014.5 hPa | 0 mm | - | 366 W/m² | - |
| 1777735467 | 12.78° C | 49% | 1014.4 hPa | 0 mm | - | 306 W/m² | - |
| 1777735166 | 12.78° C | 49% | 1014.4 hPa | 0 mm | - | 320 W/m² | - |
| 1777734867 | 12.22° C | 54% | 1014.4 hPa | 0 mm | - | 935 W/m² | - |
| 1777734566 | 12.22° C | 51% | 1014.4 hPa | 0 mm | - | 871 W/m² | - |
| 1777734267 | 13.33° C | 48% | 1014.4 hPa | 0 mm | - | 248 W/m² | - |
| 1777733967 | 12.78° C | 48% | 1014.4 hPa | 0 mm | - | 864 W/m² | - |
| 1777733666 | 12.78° C | 47% | 1014.4 hPa | 0 mm | - | 936 W/m² | - |
| 1777733366 | 12.22° C | 49% | 1014.4 hPa | 0 mm | - | 849 W/m² | - |
| 1777733066 | 12.22° C | 51% | 1014.4 hPa | 0 mm | - | 799 W/m² | - |
| 1777732766 | 11.67° C | 48% | 1014.4 hPa | 0 mm | - | 836 W/m² | - |
| 1777732467 | 11.67° C | 50% | 1014.4 hPa | 0 mm | - | 689 W/m² | - |
| 1777732166 | 11.67° C | 52% | 1014.4 hPa | 0 mm | - | 806 W/m² | - |
| 1777731866 | 11.67° C | 56% | 1014.6 hPa | 0 mm | - | 777 W/m² | - |
| 1777731566 | 11.11° C | 52% | 1014.6 hPa | 0 mm | - | 724 W/m² | - |
| 1777731267 | 10.56° C | 55% | 1014.6 hPa | 0 mm | - | 678 W/m² | - |
| 1777730967 | 10.56° C | 56% | 1014.5 hPa | 0 mm | - | 702 W/m² | - |
* Rain latest hour (hover to see other rain measurements)
** Current wind speed in m/s (hover to see current wind gust speed)